Time;durP1;ratioP1;P1;durP2;ratioP2;P2;SDS_P1;SDS_P2;PMS_P1;PMS_P2;Temp;Humidity;BMP_temperature;BMP_pressure;BME280_temperature;BME280_humidity;BME280_pressure;Samples;Min_cycle;Max_cycle;Signal;HPM_P1;HPM_P2
2022/03/24 00:01:55;;;;;;;;;;;5.10;99.90;;;;;;4989581;28;20095;-72
2022/03/24 00:04:20;;;;;;;;;;;5.00;99.90;;;;;;4979072;28;19930;-72
2022/03/24 00:06:46;;;;;;;;;;;4.90;99.90;;;;;;4980898;28;19940;-72
2022/03/24 00:09:12;;;;;;;;;;;4.80;99.90;;;;;;4981492;28;20042;-72
2022/03/24 00:11:38;;;;;;;;;;;4.80;99.90;;;;;;4997274;28;20052;-72
2022/03/24 00:14:04;;;;;;;;;;;4.70;99.90;;;;;;4980839;28;19929;-72
2022/03/24 00:16:30;;;;;;;;;;;4.60;99.90;;;;;;4981538;28;19936;-72
2022/03/24 00:18:56;;;;;;;;;;;4.60;99.90;;;;;;4978809;28;20027;-72
2022/03/24 00:21:23;;;;;;;;;;;4.60;99.90;;;;;;4996443;28;19936;-72
2022/03/24 00:23:49;;;;;;;;;;;4.50;99.90;;;;;;4998111;28;19955;-72
2022/03/24 00:26:15;;;;;;;;;;;4.40;99.90;;;;;;4993675;28;19930;-72
2022/03/24 00:28:41;;;;;;;;;;;4.40;99.90;;;;;;4977539;28;20858;-72
2022/03/24 00:31:07;;;;;;;;;;;4.40;99.90;;;;;;4981620;28;20318;-72
2022/03/24 00:33:32;;;;;;;;;;;4.30;99.90;;;;;;4978674;28;19930;-72
2022/03/24 00:35:58;;;;;;;;;;;4.40;99.90;;;;;;4999602;28;19929;-72
2022/03/24 00:38:23;;;;;;;;;;;4.30;99.90;;;;;;4979130;28;19929;-72
2022/03/24 00:40:49;;;;;;;;;;;4.30;99.90;;;;;;4980899;28;20394;-72
2022/03/24 00:43:15;;;;;;;;;;;4.30;99.90;;;;;;4996122;28;20425;-72
2022/03/24 00:45:40;;;;;;;;;;;4.20;99.90;;;;;;4979694;28;19935;-72
2022/03/24 00:48:10;;;;;;;;;;;4.10;99.90;;;;;;4979473;28;19940;-72
2022/03/24 00:50:36;;;;;;;;;;;4.20;99.90;;;;;;4997571;28;19929;-72
2022/03/24 00:53:02;;;;;;;;;;;4.30;99.90;;;;;;4980773;28;20472;-72
2022/03/24 00:55:28;;;;;;;;;;;4.30;99.90;;;;;;4978580;28;20032;-72
2022/03/24 00:57:53;;;;;;;;;;;4.30;99.90;;;;;;4983144;28;19940;-72
2022/03/24 01:00:20;;;;;;;;;;;4.20;99.90;;;;;;4982054;28;20448;-72
2022/03/24 01:02:48;;;;;;;;;;;4.20;99.90;;;;;;4997696;28;19929;-72
2022/03/24 01:05:15;;;;;;;;;;;4.10;99.90;;;;;;4993790;28;20709;-72
2022/03/24 01:07:41;;;;;;;;;;;4.10;99.90;;;;;;4995098;28;20393;-72
2022/03/24 01:10:07;;;;;;;;;;;4.10;99.90;;;;;;4978409;28;19933;-72
2022/03/24 01:12:34;;;;;;;;;;;4.00;99.90;;;;;;4996738;28;20059;-72
2022/03/24 01:15:00;;;;;;;;;;;4.00;99.90;;;;;;4980118;28;19929;-72
2022/03/24 01:17:26;;;;;;;;;;;3.90;99.90;;;;;;4964690;28;19936;-72
2022/03/24 01:19:52;;;;;;;;;;;3.90;99.90;;;;;;4995102;28;19929;-72
2022/03/24 01:22:18;;;;;;;;;;;3.90;99.90;;;;;;4980313;28;19929;-72
2022/03/24 01:24:45;;;;;;;;;;;3.90;99.90;;;;;;4979837;28;19929;-72
2022/03/24 01:27:11;;;;;;;;;;;3.80;99.90;;;;;;4993551;28;20442;-71
2022/03/24 01:29:37;;;;;;;;;;;3.80;99.90;;;;;;4977405;28;20413;-72
2022/03/24 01:32:03;;;;;;;;;;;3.60;99.90;;;;;;4995602;28;19933;-72
2022/03/24 01:34:29;;;;;;;;;;;3.60;99.90;;;;;;4995830;28;19959;-72
2022/03/24 01:36:55;;;;;;;;;;;3.60;99.90;;;;;;4993867;28;20965;-72
2022/03/24 01:39:21;;;;;;;;;;;3.60;99.90;;;;;;4979937;28;19937;-71
2022/03/24 01:41:47;;;;;;;;;;;3.50;99.90;;;;;;4972558;28;19932;-72
2022/03/24 01:44:14;;;;;;;;;;;3.50;99.90;;;;;;4978274;28;19936;-72
2022/03/24 01:46:59;;;;;;;;;;;3.40;99.90;;;;;;4990709;28;19990;-72
2022/03/24 01:49:25;;;;;;;;;;;3.40;99.90;;;;;;4996919;28;19929;-72
2022/03/24 01:51:51;;;;;;;;;;;3.40;99.90;;;;;;4980154;28;19991;-71
2022/03/24 01:54:18;;;;;;;;;;;3.30;99.90;;;;;;4978374;28;19933;-72
2022/03/24 01:56:44;;;;;;;;;;;3.50;99.90;;;;;;4977177;28;19936;-72
2022/03/24 01:59:11;;;;;;;;;;;3.40;99.90;;;;;;4975668;28;19983;-71
2022/03/24 02:01:37;;;;;;;;;;;3.40;99.90;;;;;;4973679;28;19936;-72
2022/03/24 02:04:07;;;;;;;;;;;3.30;99.90;;;;;;4998219;28;19929;-72
2022/03/24 02:06:33;;;;;;;;;;;3.20;99.90;;;;;;4991842;28;20090;-71
2022/03/24 02:08:59;;;;;;;;;;;3.20;99.90;;;;;;4978456;28;19986;-72
2022/03/24 02:11:25;;;;;;;;;;;3.20;99.90;;;;;;4995710;28;19979;-72
2022/03/24 02:13:50;;;;;;;;;;;3.20;99.90;;;;;;4996893;28;20023;-72
2022/03/24 02:16:16;;;;;;;;;;;3.20;99.90;;;;;;4973867;28;19988;-72
2022/03/24 02:18:45;;;;;;;;;;;3.10;99.90;;;;;;4999265;28;19929;-72
2022/03/24 02:21:14;;;;;;;;;;;3.10;99.90;;;;;;4981772;28;20387;-72
2022/03/24 02:23:41;;;;;;;;;;;3.10;99.90;;;;;;4993906;28;19933;-72
2022/03/24 02:26:07;;;;;;;;;;;3.00;99.90;;;;;;4979953;28;19933;-72
2022/03/24 02:28:33;;;;;;;;;;;3.10;99.90;;;;;;4983202;28;19929;-72
2022/03/24 02:30:58;;;;;;;;;;;3.10;99.90;;;;;;4980647;28;19948;-72
2022/03/24 02:33:24;;;;;;;;;;;3.10;99.90;;;;;;4979941;28;20423;-72
2022/03/24 02:35:52;;;;;;;;;;;3.10;99.90;;;;;;4999855;28;19936;-71
2022/03/24 02:38:21;;;;;;;;;;;3.00;99.90;;;;;;4984693;28;19936;-72
2022/03/24 02:40:49;;;;;;;;;;;3.00;99.90;;;;;;4978706;28;20725;-72
2022/03/24 02:43:19;;;;;;;;;;;3.00;99.90;;;;;;4999848;28;19929;-72
2022/03/24 02:45:46;;;;;;;;;;;3.00;99.90;;;;;;4998883;28;20428;-72
2022/03/24 02:48:12;;;;;;;;;;;3.00;99.90;;;;;;4984072;28;19929;-72
2022/03/24 02:50:37;;;;;;;;;;;2.90;99.90;;;;;;5000515;28;19933;-71
2022/03/24 02:53:03;;;;;;;;;;;3.00;99.90;;;;;;4998953;28;20000;-72
2022/03/24 02:55:30;;;;;;;;;;;3.00;99.90;;;;;;5005243;28;19929;-72
2022/03/24 02:57:56;;;;;;;;;;;3.00;99.90;;;;;;5002874;28;19933;-72
2022/03/24 03:00:25;;;;;;;;;;;2.80;99.90;;;;;;4982891;28;20350;-72
2022/03/24 03:02:52;;;;;;;;;;;2.80;99.90;;;;;;4998424;28;19936;-72
2022/03/24 03:05:18;;;;;;;;;;;2.80;99.90;;;;;;4981491;28;19995;-72
2022/03/24 03:07:44;;;;;;;;;;;2.70;99.90;;;;;;4996738;28;20396;-72
2022/03/24 03:10:10;;;;;;;;;;;2.70;99.90;;;;;;4981726;28;19971;-72
2022/03/24 03:12:36;;;;;;;;;;;2.70;99.90;;;;;;4999644;28;19983;-72
2022/03/24 03:15:02;;;;;;;;;;;2.70;99.90;;;;;;4998893;28;19933;-72
2022/03/24 03:17:28;;;;;;;;;;;2.70;99.90;;;;;;4982863;28;19936;-72
2022/03/24 03:19:53;;;;;;;;;;;2.70;99.90;;;;;;5001814;28;19929;-72
2022/03/24 03:22:21;;;;;;;;;;;2.60;99.90;;;;;;4984403;28;19929;-71
2022/03/24 03:24:46;;;;;;;;;;;2.60;99.90;;;;;;4995714;28;19971;-72
2022/03/24 03:27:13;;;;;;;;;;;2.60;99.90;;;;;;4979786;28;20024;-72
2022/03/24 03:29:39;;;;;;;;;;;2.60;99.90;;;;;;4978509;28;19929;-72
2022/03/24 03:32:05;;;;;;;;;;;2.60;99.90;;;;;;4978956;28;19941;-72
2022/03/24 03:34:31;;;;;;;;;;;2.60;99.90;;;;;;4983857;28;19929;-72
2022/03/24 03:36:59;;;;;;;;;;;2.50;99.90;;;;;;4977824;28;19929;-72
2022/03/24 03:39:25;;;;;;;;;;;2.50;99.90;;;;;;4981275;28;20024;-71
2022/03/24 03:41:51;;;;;;;;;;;2.60;99.90;;;;;;4965051;28;20386;-72
2022/03/24 03:44:17;;;;;;;;;;;2.60;99.90;;;;;;4983537;28;19933;-71
2022/03/24 03:46:42;;;;;;;;;;;2.50;99.90;;;;;;5000185;28;19936;-72
2022/03/24 03:49:08;;;;;;;;;;;2.50;99.90;;;;;;4981509;28;20411;-72
2022/03/24 03:51:35;;;;;;;;;;;2.50;99.90;;;;;;4983731;28;19933;-71
2022/03/24 03:54:00;;;;;;;;;;;2.40;99.90;;;;;;4975467;28;19929;-72
2022/03/24 03:56:26;;;;;;;;;;;2.50;99.90;;;;;;4981904;28;19933;-71
2022/03/24 03:58:52;;;;;;;;;;;2.50;99.90;;;;;;4979780;28;19929;-71
2022/03/24 04:01:17;;;;;;;;;;;2.40;99.90;;;;;;4997373;28;19952;-71
2022/03/24 04:03:43;;;;;;;;;;;2.40;99.90;;;;;;4993438;28;20394;-72
2022/03/24 04:06:10;;;;;;;;;;;2.40;99.90;;;;;;4978741;28;19929;-72
2022/03/24 04:08:37;;;;;;;;;;;2.40;99.90;;;;;;4997204;28;20554;-72
2022/03/24 04:11:03;;;;;;;;;;;2.40;99.90;;;;;;4978549;28;20029;-71
2022/03/24 04:13:29;;;;;;;;;;;2.40;99.90;;;;;;4995298;28;19929;-71
2022/03/24 04:15:55;;;;;;;;;;;2.40;99.90;;;;;;5000766;28;19929;-71
2022/03/24 04:18:22;;;;;;;;;;;2.40;99.90;;;;;;4994375;28;19929;-72
2022/03/24 04:20:48;;;;;;;;;;;2.40;99.90;;;;;;4981689;28;19929;-72
2022/03/24 04:23:14;;;;;;;;;;;2.50;99.90;;;;;;4997106;28;19933;-71
2022/03/24 04:25:39;;;;;;;;;;;2.30;99.90;;;;;;4979482;28;20674;-72
2022/03/24 04:28:06;;;;;;;;;;;2.30;99.90;;;;;;4978737;28;19933;-72
2022/03/24 04:30:32;;;;;;;;;;;2.30;99.90;;;;;;4982888;28;20016;-72
2022/03/24 04:32:58;;;;;;;;;;;2.30;99.90;;;;;;4991428;28;19940;-71
2022/03/24 04:35:24;;;;;;;;;;;2.20;99.90;;;;;;4996544;28;19933;-72
2022/03/24 04:37:50;;;;;;;;;;;2.20;99.90;;;;;;4963389;28;20421;-71
2022/03/24 04:40:16;;;;;;;;;;;2.20;99.90;;;;;;4979195;28;19933;-72
2022/03/24 04:42:47;;;;;;;;;;;2.10;99.90;;;;;;4979768;28;19982;-72
2022/03/24 04:45:17;;;;;;;;;;;2.10;99.90;;;;;;4989807;28;20302;-72
2022/03/24 04:47:43;;;;;;;;;;;2.10;99.90;;;;;;4994671;28;19987;-72
2022/03/24 04:50:09;;;;;;;;;;;2.00;99.90;;;;;;4993040;28;19980;-72
2022/03/24 04:52:35;;;;;;;;;;;2.10;99.90;;;;;;4981553;28;19979;-72
2022/03/24 04:55:01;;;;;;;;;;;2.00;99.90;;;;;;4996657;28;20376;-71
2022/03/24 04:57:27;;;;;;;;;;;2.10;99.90;;;;;;4996937;28;19940;-71
2022/03/24 04:59:53;;;;;;;;;;;2.10;99.90;;;;;;4978590;28;19955;-72
2022/03/24 05:02:19;;;;;;;;;;;2.00;99.90;;;;;;4979002;28;19929;-72
2022/03/24 05:04:45;;;;;;;;;;;2.00;99.90;;;;;;4997702;28;19940;-72
2022/03/24 05:07:10;;;;;;;;;;;2.00;99.90;;;;;;4976982;28;19929;-72
2022/03/24 05:09:36;;;;;;;;;;;2.00;99.90;;;;;;4981641;28;19929;-71
2022/03/24 05:12:03;;;;;;;;;;;2.00;99.90;;;;;;4980954;28;19928;-71
2022/03/24 05:14:30;;;;;;;;;;;2.00;99.90;;;;;;4998358;28;19929;-71
2022/03/24 05:16:55;;;;;;;;;;;1.90;99.90;;;;;;4981181;28;20290;-71
2022/03/24 05:19:21;;;;;;;;;;;2.00;99.90;;;;;;4992483;28;19972;-72
2022/03/24 05:21:46;;;;;;;;;;;2.00;99.90;;;;;;4980960;28;20353;-71
2022/03/24 05:24:12;;;;;;;;;;;2.00;99.90;;;;;;4992327;28;19934;-71
2022/03/24 05:26:39;;;;;;;;;;;1.90;99.90;;;;;;4977925;28;19929;-72
2022/03/24 05:29:04;;;;;;;;;;;1.90;99.90;;;;;;4977945;28;19987;-71
2022/03/24 05:31:30;;;;;;;;;;;2.00;99.90;;;;;;4994221;28;20032;-72
2022/03/24 05:33:56;;;;;;;;;;;1.90;99.90;;;;;;4976181;28;19929;-71
2022/03/24 05:36:21;;;;;;;;;;;2.00;99.90;;;;;;4996186;28;20374;-72
2022/03/24 05:38:47;;;;;;;;;;;2.10;99.90;;;;;;4976132;28;19929;-71
2022/03/24 05:41:13;;;;;;;;;;;2.00;99.90;;;;;;4994293;28;19929;-71
2022/03/24 05:43:39;;;;;;;;;;;2.00;99.90;;;;;;4975817;28;19968;-71
2022/03/24 05:46:05;;;;;;;;;;;2.00;99.90;;;;;;4978431;28;20509;-71
2022/03/24 05:48:32;;;;;;;;;;;2.30;99.90;;;;;;4992411;28;19931;-71
2022/03/24 05:50:58;;;;;;;;;;;2.30;99.90;;;;;;4989612;28;20314;-72
2022/03/24 05:53:23;;;;;;;;;;;2.50;99.90;;;;;;4947818;28;19940;-72
2022/03/24 05:55:49;;;;;;;;;;;2.70;99.90;;;;;;4964721;28;19932;-72
2022/03/24 05:58:14;;;;;;;;;;;2.70;99.90;;;;;;4964482;28;19931;-71
2022/03/24 06:00:41;;;;;;;;;;;2.60;99.90;;;;;;4975361;28;19930;-72
2022/03/24 06:03:07;;;;;;;;;;;2.90;99.90;;;;;;4984159;28;20016;-72
2022/03/24 06:05:33;;;;;;;;;;;2.90;99.90;;;;;;4986345;28;20026;-72
2022/03/24 06:08:00;;;;;;;;;;;2.80;99.90;;;;;;4982548;28;20358;-72
2022/03/24 06:10:26;;;;;;;;;;;2.90;99.90;;;;;;4963039;28;19999;-72
2022/03/24 06:12:52;;;;;;;;;;;3.10;99.90;;;;;;4981961;28;20172;-72
2022/03/24 06:15:18;;;;;;;;;;;3.30;99.90;;;;;;4981228;28;19978;-72
2022/03/24 06:17:44;;;;;;;;;;;3.50;99.90;;;;;;4965221;28;19940;-72
2022/03/24 06:20:10;;;;;;;;;;;3.70;99.90;;;;;;4964558;28;19956;-72
2022/03/24 06:23:02;;;;;;;;;;;3.90;99.90;;;;;;4970286;28;19929;-72
2022/03/24 06:25:27;;;;;;;;;;;4.00;99.90;;;;;;4969098;28;19987;-71
2022/03/24 06:27:53;;;;;;;;;;;4.30;99.90;;;;;;4954780;28;19933;-71
2022/03/24 06:30:19;;;;;;;;;;;4.60;99.90;;;;;;4956487;28;19952;-72
2022/03/24 06:32:45;;;;;;;;;;;4.70;99.90;;;;;;4956546;28;19925;-72
2022/03/24 06:35:11;;;;;;;;;;;4.80;99.90;;;;;;4967787;28;20102;-72
2022/03/24 06:37:40;;;;;;;;;;;4.80;99.90;;;;;;4984487;28;20325;-72
2022/03/24 06:40:09;;;;;;;;;;;4.80;99.90;;;;;;4981873;28;20342;-72
2022/03/24 06:42:35;;;;;;;;;;;4.70;99.90;;;;;;4965715;28;20837;-72
2022/03/24 06:45:01;;;;;;;;;;;4.70;99.90;;;;;;4982019;28;19929;-72
2022/03/24 06:47:26;;;;;;;;;;;4.90;99.90;;;;;;4981615;28;20311;-72
2022/03/24 06:49:52;;;;;;;;;;;5.00;99.90;;;;;;4985522;28;19930;-72
2022/03/24 06:52:18;;;;;;;;;;;5.20;99.90;;;;;;4971868;28;19929;-72
2022/03/24 06:54:43;;;;;;;;;;;5.50;99.90;;;;;;4971178;28;19987;-72
2022/03/24 06:57:14;;;;;;;;;;;5.60;99.90;;;;;;4973133;28;19936;-72
2022/03/24 06:59:43;;;;;;;;;;;5.80;99.90;;;;;;4980284;28;19933;-72
2022/03/24 07:02:09;;;;;;;;;;;5.90;99.90;;;;;;4996300;28;20413;-72
2022/03/24 07:04:35;;;;;;;;;;;6.20;99.90;;;;;;4995089;28;19934;-72
2022/03/24 07:07:00;;;;;;;;;;;6.30;99.90;;;;;;4984728;28;20391;-72
2022/03/24 07:09:26;;;;;;;;;;;6.60;99.90;;;;;;5002888;28;20416;-72
2022/03/24 07:11:52;;;;;;;;;;;6.80;99.90;;;;;;4982787;28;19929;-72
2022/03/24 07:14:17;;;;;;;;;;;7.00;99.90;;;;;;5001291;28;19929;-72
2022/03/24 07:16:43;;;;;;;;;;;7.20;99.90;;;;;;4982624;28;20421;-72
2022/03/24 07:19:09;;;;;;;;;;;7.40;99.90;;;;;;5002664;28;19929;-72
2022/03/24 07:21:35;;;;;;;;;;;7.60;99.90;;;;;;5003255;28;20724;-72
2022/03/24 07:24:01;;;;;;;;;;;7.80;99.90;;;;;;5002720;28;20016;-72
2022/03/24 07:26:27;;;;;;;;;;;8.00;99.90;;;;;;4999634;28;20169;-72
2022/03/24 07:28:53;;;;;;;;;;;8.50;99.90;;;;;;4987404;28;19929;-72
2022/03/24 07:31:19;;;;;;;;;;;8.50;99.90;;;;;;4979736;28;19973;-72
2022/03/24 07:33:45;;;;;;;;;;;8.80;99.90;;;;;;4982059;28;19973;-72
2022/03/24 07:36:11;;;;;;;;;;;8.80;99.90;;;;;;4997047;28;19976;-72
2022/03/24 07:38:37;;;;;;;;;;;9.00;99.90;;;;;;4982877;28;20574;-72
2022/03/24 07:41:03;;;;;;;;;;;8.80;99.90;;;;;;5000366;28;19933;-72
2022/03/24 07:43:28;;;;;;;;;;;8.80;99.90;;;;;;4992686;28;20006;-72
2022/03/24 07:45:54;;;;;;;;;;;9.30;99.90;;;;;;4995646;28;19971;-72
2022/03/24 07:48:25;;;;;;;;;;;9.20;99.90;;;;;;4984725;28;19929;-72
2022/03/24 07:50:51;;;;;;;;;;;9.30;99.90;;;;;;5002318;28;19929;-72
2022/03/24 07:53:17;;;;;;;;;;;9.70;99.90;;;;;;4988433;28;19940;-72
2022/03/24 07:55:43;;;;;;;;;;;9.80;99.90;;;;;;5003901;28;19929;-73
2022/03/24 07:58:10;;;;;;;;;;;10.00;99.90;;;;;;4985618;28;20019;-73
2022/03/24 08:00:35;;;;;;;;;;;10.10;99.90;;;;;;4987724;28;20032;-73
2022/03/24 08:03:01;;;;;;;;;;;10.60;99.90;;;;;;4999096;28;19929;-73
2022/03/24 08:05:27;;;;;;;;;;;11.10;99.90;;;;;;4980762;28;19933;-72
2022/03/24 08:07:56;;;;;;;;;;;11.40;99.90;;;;;;4982844;28;20295;-73
2022/03/24 08:10:22;;;;;;;;;;;11.40;99.90;;;;;;4993749;28;20713;-73
2022/03/24 08:12:48;;;;;;;;;;;11.40;99.90;;;;;;4980360;28;19942;-73
2022/03/24 08:15:13;;;;;;;;;;;11.70;99.90;;;;;;4981782;28;19968;-73
2022/03/24 08:17:39;;;;;;;;;;;12.00;99.90;;;;;;4984445;28;19940;-73
2022/03/24 08:20:06;;;;;;;;;;;12.40;99.90;;;;;;4985483;28;20032;-73
2022/03/24 08:22:31;;;;;;;;;;;12.70;99.90;;;;;;4984815;28;20013;-73
2022/03/24 08:24:57;;;;;;;;;;;12.80;99.90;;;;;;4969879;28;20844;-74
2022/03/24 08:27:22;;;;;;;;;;;12.90;99.90;;;;;;4985109;28;19929;-74
2022/03/24 08:29:48;;;;;;;;;;;13.00;99.90;;;;;;4983792;28;19933;-73
2022/03/24 08:32:14;;;;;;;;;;;13.10;99.90;;;;;;4985436;28;19952;-73
2022/03/24 08:34:40;;;;;;;;;;;13.30;99.90;;;;;;4981922;28;20826;-73
2022/03/24 08:37:06;;;;;;;;;;;13.40;99.90;;;;;;4981163;28;19929;-73
2022/03/24 08:39:32;;;;;;;;;;;13.20;94.30;;;;;;4986412;28;19929;-73
2022/03/24 08:41:58;;;;;;;;;;;13.30;99.90;;;;;;4982994;28;19979;-73
2022/03/24 08:44:24;;;;;;;;;;;13.60;99.90;;;;;;4982702;28;19979;-74
2022/03/24 08:46:49;;;;;;;;;;;13.40;86.70;;;;;;4982102;28;19929;-74
2022/03/24 08:49:15;;;;;;;;;;;13.30;97.70;;;;;;4985405;28;19940;-73
2022/03/24 08:51:41;;;;;;;;;;;13.50;94.60;;;;;;5001108;28;19929;-73
2022/03/24 08:54:07;;;;;;;;;;;13.70;99.50;;;;;;5000927;28;19964;-74
2022/03/24 08:56:33;;;;;;;;;;;13.80;99.90;;;;;;4981915;28;20393;-73
2022/03/24 08:58:59;;;;;;;;;;;13.50;98.50;;;;;;5001731;28;19929;-73
2022/03/24 09:01:24;;;;;;;;;;;13.90;87.60;;;;;;4987388;28;19939;-73
2022/03/24 09:03:51;;;;;;;;;;;13.80;91.60;;;;;;4995451;28;20627;-73
2022/03/24 09:06:17;;;;;;;;;;;13.70;80.60;;;;;;4974037;28;19965;-73
2022/03/24 09:08:42;;;;;;;;;;;14.20;93.00;;;;;;4976947;28;19937;-73
2022/03/24 09:11:09;;;;;;;;;;;13.90;76.90;;;;;;4991873;28;19941;-73
2022/03/24 09:13:35;;;;;;;;;;;14.20;81.10;;;;;;5002473;28;19925;-73
2022/03/24 09:16:01;;;;;;;;;;;14.50;81.90;;;;;;4983778;28;19960;-73
2022/03/24 09:18:27;;;;;;;;;;;14.30;90.40;;;;;;4981113;28;20607;-73
2022/03/24 09:20:52;;;;;;;;;;;14.00;77.00;;;;;;4981779;28;20025;-73
2022/03/24 09:23:18;;;;;;;;;;;14.30;96.90;;;;;;4983283;28;19983;-73
2022/03/24 09:25:44;;;;;;;;;;;14.70;71.50;;;;;;4983323;28;20441;-73
2022/03/24 09:28:10;;;;;;;;;;;14.90;74.70;;;;;;5000085;28;20313;-73
2022/03/24 09:30:36;;;;;;;;;;;15.30;74.70;;;;;;4984149;28;19929;-73
2022/03/24 09:33:01;;;;;;;;;;;15.50;76.60;;;;;;4998138;28;19936;-73
2022/03/24 09:35:28;;;;;;;;;;;15.10;72.30;;;;;;4980124;28;19992;-74
2022/03/24 09:37:53;;;;;;;;;;;15.30;75.70;;;;;;4985218;28;19929;-73
2022/03/24 09:40:19;;;;;;;;;;;15.50;68.80;;;;;;4984133;28;19968;-73
2022/03/24 09:42:46;;;;;;;;;;;15.60;70.30;;;;;;4981878;28;20012;-73
2022/03/24 09:45:13;;;;;;;;;;;15.80;71.00;;;;;;4982246;28;19929;-73
2022/03/24 09:47:40;;;;;;;;;;;15.70;74.00;;;;;;4985443;28;20709;-73
2022/03/24 09:50:06;;;;;;;;;;;16.30;74.00;;;;;;5003403;28;19929;-73
2022/03/24 09:52:32;;;;;;;;;;;16.40;76.50;;;;;;4982177;28;19929;-73
2022/03/24 09:54:57;;;;;;;;;;;16.40;69.10;;;;;;4981434;28;20999;-73
2022/03/24 09:57:23;;;;;;;;;;;16.80;76.40;;;;;;4979235;28;20101;-74
2022/03/24 09:59:49;;;;;;;;;;;16.50;66.30;;;;;;4981706;28;19929;-73
2022/03/24 10:02:15;;;;;;;;;;;16.80;65.20;;;;;;4981459;28;19929;-73
2022/03/24 10:04:45;;;;;;;;;;;16.80;70.50;;;;;;4979242;28;19929;-73
2022/03/24 10:07:10;;;;;;;;;;;16.90;67.30;;;;;;4976776;28;20040;-73
2022/03/24 10:09:37;;;;;;;;;;;16.90;67.90;;;;;;4995076;28;19929;-74
2022/03/24 10:12:03;;;;;;;;;;;17.60;66.30;;;;;;4972888;28;20860;-74
2022/03/24 10:14:29;;;;;;;;;;;16.80;59.70;;;;;;4976085;28;20346;-73
2022/03/24 10:17:04;;;;;;;;;;;17.00;63.30;;;;;;4977709;28;20822;-73
2022/03/24 10:19:30;;;;;;;;;;;17.10;59.40;;;;;;4996972;28;19937;-74
2022/03/24 10:21:56;;;;;;;;;;;16.80;61.00;;;;;;4999428;28;19933;-73
2022/03/24 10:24:22;;;;;;;;;;;16.50;60.60;;;;;;4978635;28;20778;-74
2022/03/24 10:27:00;;;;;;;;;;;17.00;61.60;;;;;;4981190;28;19940;-74
2022/03/24 10:29:26;;;;;;;;;;;17.50;60.00;;;;;;4997717;28;20586;-74
2022/03/24 10:31:53;;;;;;;;;;;17.20;58.30;;;;;;4982502;28;20441;-74
2022/03/24 10:34:31;;;;;;;;;;;16.90;59.20;;;;;;4975765;28;19941;-74
2022/03/24 10:37:00;;;;;;;;;;;17.20;55.10;;;;;;4981988;28;19936;-74
2022/03/24 10:39:26;;;;;;;;;;;17.20;56.30;;;;;;4980933;28;20211;-74
2022/03/24 10:41:52;;;;;;;;;;;17.40;58.00;;;;;;4999826;28;20305;-73
2022/03/24 10:44:18;;;;;;;;;;;17.30;58.70;;;;;;5003558;28;19956;-73
2022/03/24 10:46:43;;;;;;;;;;;17.40;61.10;;;;;;4983198;28;19929;-72
2022/03/24 10:49:16;;;;;;;;;;;17.90;59.20;;;;;;5001931;28;20008;-73
2022/03/24 10:51:43;;;;;;;;;;;18.20;58.00;;;;;;4987207;28;19929;-73
2022/03/24 10:54:19;;;;;;;;;;;18.40;56.20;;;;;;4969144;28;19929;-72
2022/03/24 10:57:04;;;;;;;;;;;18.50;55.50;;;;;;5003965;28;20290;-73
2022/03/24 10:59:32;;;;;;;;;;;18.20;53.30;;;;;;4984148;28;19972;-73
2022/03/24 11:01:58;;;;;;;;;;;18.40;56.30;;;;;;4969731;28;19986;-73
2022/03/24 11:04:23;;;;;;;;;;;18.40;52.60;;;;;;4983149;28;19929;-73
2022/03/24 11:06:49;;;;;;;;;;;18.90;55.00;;;;;;5002910;28;19932;-73
2022/03/24 11:09:23;;;;;;;;;;;18.50;52.20;;;;;;4984009;28;20698;-73
2022/03/24 11:11:55;;;;;;;;;;;18.20;53.70;;;;;;5000040;28;20135;-73
2022/03/24 11:14:21;;;;;;;;;;;18.50;51.10;;;;;;4986175;28;19936;-73
2022/03/24 11:16:47;;;;;;;;;;;18.40;51.50;;;;;;4985966;28;19933;-74
2022/03/24 11:19:14;;;;;;;;;;;19.00;54.00;;;;;;5000838;28;19929;-73
2022/03/24 11:21:40;;;;;;;;;;;18.60;49.70;;;;;;5002688;28;19979;-74
2022/03/24 11:24:06;;;;;;;;;;;18.90;49.80;;;;;;4998858;28;20044;-73
2022/03/24 11:26:34;;;;;;;;;;;18.40;46.60;;;;;;4979416;28;20988;-73
2022/03/24 11:29:00;;;;;;;;;;;18.70;48.20;;;;;;4986263;28;19929;-74
2022/03/24 11:31:31;;;;;;;;;;;19.10;51.20;;;;;;4982823;28;19990;-73
2022/03/24 11:34:00;;;;;;;;;;;19.20;53.50;;;;;;4969496;28;20032;-73
2022/03/24 11:36:27;;;;;;;;;;;19.40;53.10;;;;;;5000260;28;20387;-73
2022/03/24 11:39:00;;;;;;;;;;;19.60;50.20;;;;;;4979249;28;19929;-73
2022/03/24 11:41:33;;;;;;;;;;;19.20;48.20;;;;;;4985784;28;19936;-73
2022/03/24 11:44:22;;;;;;;;;;;18.50;44.80;;;;;;4981723;28;20414;-73
2022/03/24 11:46:56;;;;;;;;;;;18.20;44.10;;;;;;4976858;28;19940;-73
2022/03/24 11:49:25;;;;;;;;;;;18.30;46.60;;;;;;4999968;28;20345;-73
2022/03/24 11:52:12;;;;;;;;;;;18.70;47.60;;;;;;4982488;28;19935;-73
2022/03/24 11:54:38;;;;;;;;;;;19.10;46.70;;;;;;4979638;28;20272;-73
2022/03/24 11:57:23;;;;;;;;;;;18.60;43.00;;;;;;4984733;28;19936;-73
2022/03/24 12:00:15;;;;;;;;;;;18.80;43.20;;;;;;5000814;28;19926;-74
2022/03/24 12:02:43;;;;;;;;;;;18.40;43.60;;;;;;4962951;28;19929;-73
2022/03/24 12:05:10;;;;;;;;;;;18.90;44.80;;;;;;4986006;28;20349;-74
2022/03/24 12:07:36;;;;;;;;;;;19.00;45.70;;;;;;5004358;28;19971;-74
2022/03/24 12:10:05;;;;;;;;;;;18.80;41.50;;;;;;4984111;28;20084;-74
2022/03/24 12:12:30;;;;;;;;;;;18.70;43.30;;;;;;5000879;28;20028;-74
2022/03/24 12:14:58;;;;;;;;;;;18.90;42.30;;;;;;5004179;28;19929;-73
2022/03/24 12:17:31;;;;;;;;;;;19.40;45.60;;;;;;5002696;28;20334;-73
2022/03/24 12:19:58;;;;;;;;;;;19.10;41.20;;;;;;4998455;28;19933;-73
2022/03/24 12:22:26;;;;;;;;;;;19.40;42.20;;;;;;5005278;28;20477;-73
2022/03/24 12:24:53;;;;;;;;;;;19.40;45.40;;;;;;4986522;28;19933;-73
2022/03/24 12:27:18;;;;;;;;;;;19.70;45.00;;;;;;4989954;28;20712;-74
2022/03/24 12:30:03;;;;;;;;;;;19.60;40.00;;;;;;4968644;28;21566;-74
2022/03/24 12:32:29;;;;;;;;;;;19.80;40.20;;;;;;4979551;28;19929;-73
2022/03/24 12:34:54;;;;;;;;;;;19.20;37.90;;;;;;4952307;28;20550;-74
2022/03/24 12:37:40;;;;;;;;;;;19.90;42.20;;;;;;4966565;28;20019;-73
2022/03/24 12:40:07;;;;;;;;;;;19.10;39.20;;;;;;4986519;28;19944;-73
2022/03/24 12:42:38;;;;;;;;;;;19.60;39.10;;;;;;4985201;28;20132;-74
2022/03/24 12:45:04;;;;;;;;;;;19.60;35.20;;;;;;4968548;28;19929;-73
2022/03/24 12:47:33;;;;;;;;;;;20.00;38.90;;;;;;4981240;28;19925;-73
2022/03/24 12:49:59;;;;;;;;;;;20.00;43.10;;;;;;4963994;28;19925;-74
2022/03/24 12:52:43;;;;;;;;;;;19.60;39.20;;;;;;4985776;28;20016;-74
2022/03/24 12:55:24;;;;;;;;;;;19.20;39.80;;;;;;4986590;28;20293;-74
2022/03/24 12:57:54;;;;;;;;;;;18.40;38.80;;;;;;4967300;28;19976;-74
2022/03/24 13:00:20;;;;;;;;;;;19.20;42.80;;;;;;4989283;28;20283;-74
2022/03/24 13:02:45;;;;;;;;;;;19.50;40.60;;;;;;4972950;28;19992;-74
2022/03/24 13:05:13;;;;;;;;;;;19.00;39.50;;;;;;4967014;28;20912;-74
2022/03/24 13:07:39;;;;;;;;;;;19.30;42.10;;;;;;4980673;28;19987;-74
2022/03/24 13:10:09;;;;;;;;;;;19.60;40.30;;;;;;4967684;28;20019;-74
2022/03/24 13:12:36;;;;;;;;;;;19.50;40.40;;;;;;4961678;28;20520;-74
2022/03/24 13:15:02;;;;;;;;;;;19.80;39.90;;;;;;4982685;28;20770;-74
2022/03/24 13:17:29;;;;;;;;;;;20.10;43.20;;;;;;4981829;28;20043;-74
2022/03/24 13:19:57;;;;;;;;;;;19.30;41.60;;;;;;4965258;28;19983;-74
2022/03/24 13:22:25;;;;;;;;;;;19.30;37.90;;;;;;4979432;28;19929;-74
2022/03/24 13:24:59;;;;;;;;;;;19.80;39.60;;;;;;4956213;28;19936;-74
2022/03/24 13:27:26;;;;;;;;;;;19.70;40.70;;;;;;4959288;28;19929;-74
2022/03/24 13:29:51;;;;;;;;;;;19.80;38.90;;;;;;4988144;28;19960;-74
2022/03/24 13:32:17;;;;;;;;;;;19.50;41.20;;;;;;4985146;28;20753;-74
2022/03/24 13:34:50;;;;;;;;;;;19.80;40.20;;;;;;4973038;28;19929;-74
2022/03/24 13:37:17;;;;;;;;;;;19.30;38.80;;;;;;4969433;28;19929;-74
2022/03/24 13:39:47;;;;;;;;;;;20.10;40.90;;;;;;4955777;28;19936;-74
2022/03/24 13:42:14;;;;;;;;;;;19.30;38.00;;;;;;4969287;28;19929;-74
2022/03/24 13:44:42;;;;;;;;;;;19.50;42.90;;;;;;4996000;28;20008;-74
2022/03/24 13:47:07;;;;;;;;;;;19.90;42.90;;;;;;4974453;28;20031;-74
2022/03/24 13:49:33;;;;;;;;;;;20.00;43.50;;;;;;4972953;28;19939;-74
2022/03/24 13:51:59;;;;;;;;;;;19.80;40.30;;;;;;4980695;28;20253;-72
2022/03/24 13:54:24;;;;;;;;;;;19.70;41.60;;;;;;4998847;28;20056;-74
2022/03/24 13:56:51;;;;;;;;;;;19.80;38.60;;;;;;4983023;28;19936;-74
2022/03/24 13:59:23;;;;;;;;;;;19.70;39.60;;;;;;4995263;28;19928;-74
2022/03/24 14:01:58;;;;;;;;;;;19.90;40.70;;;;;;4982548;28;19932;-72
2022/03/24 14:04:24;;;;;;;;;;;19.60;41.10;;;;;;4999009;28;20607;-73
2022/03/24 14:07:06;;;;;;;;;;;19.80;42.70;;;;;;4966322;28;20015;-73
2022/03/24 14:09:32;;;;;;;;;;;19.50;40.60;;;;;;4942564;28;19933;-74
2022/03/24 14:12:02;;;;;;;;;;;19.40;39.70;;;;;;4977517;28;19933;-74
2022/03/24 14:14:28;;;;;;;;;;;19.80;38.80;;;;;;4994529;28;19929;-74
2022/03/24 14:16:53;;;;;;;;;;;20.10;40.70;;;;;;4984849;28;19929;-74
2022/03/24 14:19:26;;;;;;;;;;;20.10;39.70;;;;;;4978758;28;20235;-73
2022/03/24 14:21:53;;;;;;;;;;;19.80;38.60;;;;;;4987316;28;19986;-74
2022/03/24 14:24:34;;;;;;;;;;;20.20;38.90;;;;;;4985986;28;19929;-74